Time;durP1;ratioP1;P1;durP2;ratioP2;P2;SDS_P1;SDS_P2;PMS_P1;PMS_P2;Temp;Humidity;BMP_temperature;BMP_pressure;BME280_temperature;BME280_humidity;BME280_pressure;Samples;Min_cycle;Max_cycle;Signal;HPM_P1;HPM_P2
2021/04/04 00:01:58;;;;;;;14.37;11.73;;;4.10;99.90;;;;;;4955566;28;20531;-73
2021/04/04 00:04:25;;;;;;;10.27;9.47;;;4.20;99.90;;;;;;4955745;29;20583;-72
2021/04/04 00:06:52;;;;;;;11.23;10.43;;;4.10;99.90;;;;;;4955721;28;20456;-72
2021/04/04 00:09:19;;;;;;;11.13;10.33;;;4.00;99.90;;;;;;4955573;29;20461;-72
2021/04/04 00:11:46;;;;;;;10.73;10.03;;;3.90;99.90;;;;;;4955462;28;20459;-70
2021/04/04 00:14:13;;;;;;;12.23;11.27;;;3.80;99.90;;;;;;4955043;29;20455;-67
2021/04/04 00:16:39;;;;;;;14.63;11.33;;;3.80;99.90;;;;;;4955296;28;20475;-68
2021/04/04 00:19:05;;;;;;;10.97;9.20;;;3.70;99.90;;;;;;4955167;29;20450;-68
2021/04/04 00:21:33;;;;;;;12.00;10.90;;;3.60;99.90;;;;;;4955444;29;20516;-67
2021/04/04 00:23:59;;;;;;;11.17;10.30;;;3.60;99.90;;;;;;4955227;29;20459;-67
2021/04/04 00:26:25;;;;;;;11.73;9.83;;;3.50;99.90;;;;;;4955231;29;20868;-67
2021/04/04 00:28:51;;;;;;;12.23;11.10;;;3.50;99.90;;;;;;4955027;28;20458;-67
2021/04/04 00:31:18;;;;;;;11.13;10.00;;;3.30;99.90;;;;;;4955150;29;20507;-68
2021/04/04 00:33:44;;;;;;;12.57;11.37;;;3.20;99.90;;;;;;4955234;29;20458;-67
2021/04/04 00:36:10;;;;;;;11.03;10.03;;;3.10;99.90;;;;;;4955044;28;20463;-67
2021/04/04 00:38:37;;;;;;;11.03;10.10;;;2.90;99.90;;;;;;4954792;29;20452;-67
2021/04/04 00:41:03;;;;;;;11.20;10.30;;;2.80;99.90;;;;;;4954621;29;20484;-67
2021/04/04 00:43:29;;;;;;;10.53;9.73;;;2.70;99.90;;;;;;4954788;29;20460;-68
2021/04/04 00:45:56;;;;;;;12.10;10.30;;;2.60;99.90;;;;;;4954893;29;20466;-67
2021/04/04 00:48:22;;;;;;;13.03;10.37;;;2.50;99.90;;;;;;4954814;28;20852;-67
2021/04/04 00:50:48;;;;;;;12.87;11.23;;;2.60;99.90;;;;;;4954949;29;20452;-66
2021/04/04 00:53:15;;;;;;;11.70;10.70;;;2.60;99.90;;;;;;4954330;29;20457;-67
2021/04/04 00:55:42;;;;;;;11.43;10.63;;;2.60;99.90;;;;;;4954819;28;20462;-66
2021/04/04 00:58:08;;;;;;;12.87;11.67;;;2.70;99.90;;;;;;4954454;29;20455;-66
2021/04/04 01:00:35;;;;;;;11.93;10.93;;;2.80;99.90;;;;;;4954417;28;20967;-67
2021/04/04 01:03:02;;;;;;;13.60;12.20;;;2.80;99.90;;;;;;4954483;29;20463;-66
2021/04/04 01:05:33;;;;;;;11.90;10.90;;;2.90;99.90;;;;;;4954566;29;20467;-67
2021/04/04 01:07:59;;;;;;;11.20;10.20;;;3.00;99.90;;;;;;4954334;29;20460;-67
2021/04/04 01:10:28;;;;;;;12.10;11.00;;;3.10;99.90;;;;;;4954452;29;20465;-67
2021/04/04 01:13:09;;;;;;;10.93;10.23;;;3.10;99.90;;;;;;4954286;29;20463;-67
2021/04/04 01:15:38;;;;;;;14.13;11.17;;;3.10;99.90;;;;;;4954119;28;20475;-67
2021/04/04 01:18:11;;;;;;;12.47;10.93;;;3.00;99.90;;;;;;4953757;29;20482;-67
2021/04/04 01:20:46;;;;;;;12.60;11.60;;;3.00;99.90;;;;;;4954048;29;20460;-67
2021/04/04 01:23:39;;;;;;;12.37;11.17;;;2.90;99.90;;;;;;4954205;29;20451;-67
2021/04/04 01:26:12;;;;;;;11.50;10.70;;;2.90;99.90;;;;;;4954051;29;20453;-68
2021/04/04 01:28:42;;;;;;;12.00;11.00;;;3.00;99.90;;;;;;4954012;29;20445;-67
2021/04/04 01:31:09;;;;;;;12.07;11.37;;;3.10;99.90;;;;;;4953751;29;20438;-68
2021/04/04 01:33:37;;;;;;;12.93;12.03;;;3.00;99.90;;;;;;4953817;29;20463;-67
2021/04/04 01:36:07;;;;;;;12.73;11.80;;;3.00;99.90;;;;;;4953725;29;20453;-66
2021/04/04 01:38:38;;;;;;;14.17;12.73;;;2.90;99.90;;;;;;4953629;29;20470;-67
2021/04/04 01:41:11;;;;;;;13.27;12.10;;;2.80;99.90;;;;;;4953505;29;21032;-67
2021/04/04 01:43:41;;;;;;;12.47;11.53;;;2.60;99.90;;;;;;4953659;29;20453;-67
2021/04/04 01:46:08;;;;;;;14.07;12.10;;;2.50;99.90;;;;;;4953765;29;20485;-68
2021/04/04 01:48:35;;;;;;;14.03;12.70;;;2.40;99.90;;;;;;4953309;29;20535;-67
2021/04/04 01:51:02;;;;;;;13.83;12.33;;;2.30;99.90;;;;;;4953394;29;20441;-67
2021/04/04 01:53:30;;;;;;;13.77;12.67;;;2.30;99.90;;;;;;4953679;29;20456;-67
2021/04/04 01:55:57;;;;;;;12.00;11.17;;;2.40;99.90;;;;;;4953499;29;20463;-67
2021/04/04 01:58:24;;;;;;;11.83;10.83;;;2.30;99.90;;;;;;4952993;29;20454;-67
2021/04/04 02:00:52;;;;;;;11.67;10.87;;;2.30;99.90;;;;;;4953193;29;20519;-68
2021/04/04 02:03:21;;;;;;;10.97;9.83;;;2.40;99.90;;;;;;4953295;29;20457;-68
2021/04/04 02:05:50;;;;;;;12.50;11.50;;;2.40;99.90;;;;;;4952976;29;20461;-67
2021/04/04 02:08:17;;;;;;;13.53;12.23;;;2.40;99.90;;;;;;4953372;29;20466;-67
2021/04/04 02:10:44;;;;;;;13.57;12.37;;;2.30;99.90;;;;;;4953237;29;20484;-67
2021/04/04 02:13:12;;;;;;;12.33;11.20;;;2.20;99.90;;;;;;4953055;29;20449;-68
2021/04/04 02:15:40;;;;;;;12.17;11.17;;;2.10;99.90;;;;;;4953220;28;20831;-67
2021/04/04 02:18:09;;;;;;;11.67;10.87;;;2.10;99.90;;;;;;4952804;29;20486;-67
2021/04/04 02:20:36;;;;;;;13.50;12.43;;;2.10;99.90;;;;;;4952686;29;20466;-67
2021/04/04 02:23:06;;;;;;;12.13;11.23;;;2.10;99.90;;;;;;4952817;29;20454;-67
2021/04/04 02:25:32;;;;;;;13.00;11.93;;;2.20;99.90;;;;;;4952884;29;20949;-67
2021/04/04 02:27:59;;;;;;;13.10;12.00;;;2.20;99.90;;;;;;4952798;29;20454;-67
2021/04/04 02:30:26;;;;;;;12.20;11.30;;;2.20;99.90;;;;;;4953042;29;20522;-67
2021/04/04 02:32:59;;;;;;;12.73;11.60;;;2.20;99.90;;;;;;4952724;29;20815;-67
2021/04/04 02:35:30;;;;;;;11.93;11.00;;;2.30;99.90;;;;;;4952331;28;20460;-68
2021/04/04 02:37:59;;;;;;;10.30;9.43;;;2.30;99.90;;;;;;4952673;29;20856;-67
2021/04/04 02:40:26;;;;;;;12.40;11.23;;;2.30;99.90;;;;;;4952921;29;20464;-68
2021/04/04 02:42:54;;;;;;;12.73;11.93;;;2.30;99.90;;;;;;4952757;29;20452;-68
2021/04/04 02:45:24;;;;;;;13.80;11.77;;;2.20;99.90;;;;;;4952540;29;20551;-68
2021/04/04 02:47:58;;;;;;;12.50;11.20;;;2.20;99.90;;;;;;4952978;29;21241;-67
2021/04/04 02:50:27;;;;;;;12.33;11.30;;;2.20;99.90;;;;;;4952789;29;20523;-67
2021/04/04 02:52:55;;;;;;;12.73;11.80;;;2.20;99.90;;;;;;4952848;29;20535;-67
2021/04/04 02:55:22;;;;;;;12.20;11.27;;;2.20;99.90;;;;;;4952535;29;20458;-67
2021/04/04 02:57:52;;;;;;;14.20;13.10;;;2.20;99.90;;;;;;4952256;29;20448;-67
2021/04/04 03:00:20;;;;;;;13.63;12.53;;;2.20;99.90;;;;;;4952587;29;20459;-68
2021/04/04 03:02:47;;;;;;;12.50;11.50;;;2.30;99.90;;;;;;4952412;29;20495;-68
2021/04/04 03:05:15;;;;;;;15.33;13.13;;;2.30;99.90;;;;;;4952512;29;20459;-68
2021/04/04 03:07:44;;;;;;;11.73;10.70;;;2.40;99.90;;;;;;4952918;29;20449;-68
2021/04/04 03:10:12;;;;;;;11.53;10.43;;;2.40;99.90;;;;;;4952519;29;20466;-67
2021/04/04 03:12:40;;;;;;;12.23;11.10;;;2.40;99.90;;;;;;4952606;29;20809;-67
2021/04/04 03:15:09;;;;;;;12.20;11.13;;;2.40;99.90;;;;;;4952081;28;20457;-67
2021/04/04 03:17:39;;;;;;;12.70;11.23;;;2.40;99.90;;;;;;4952213;28;20484;-68
2021/04/04 03:20:07;;;;;;;12.10;10.87;;;2.40;99.90;;;;;;4952420;29;20460;-68
2021/04/04 03:22:36;;;;;;;12.63;11.40;;;2.50;99.90;;;;;;4952324;29;20475;-67
2021/04/04 03:25:06;;;;;;;12.80;11.57;;;2.40;99.90;;;;;;4952019;29;20455;-68
2021/04/04 03:27:34;;;;;;;12.87;11.73;;;2.40;99.90;;;;;;4952576;29;20814;-67
2021/04/04 03:30:00;;;;;;;12.73;11.40;;;2.40;99.90;;;;;;4952478;29;20489;-67
2021/04/04 03:32:27;;;;;;;12.20;11.33;;;2.30;99.90;;;;;;4952757;28;20528;-67
2021/04/04 03:34:55;;;;;;;13.37;12.30;;;2.30;99.90;;;;;;4951909;29;20473;-67
2021/04/04 03:37:23;;;;;;;14.53;13.30;;;2.20;99.90;;;;;;4952307;29;20538;-67
2021/04/04 03:39:50;;;;;;;13.37;12.17;;;2.20;99.90;;;;;;4952300;28;20535;-68
2021/04/04 03:42:18;;;;;;;13.57;12.50;;;2.20;99.90;;;;;;4952129;28;20850;-67
2021/04/04 03:44:44;;;;;;;12.83;11.30;;;2.20;99.90;;;;;;4952402;28;20521;-67
2021/04/04 03:47:11;;;;;;;12.80;11.70;;;2.20;99.90;;;;;;4953090;28;20461;-68
2021/04/04 03:49:40;;;;;;;14.07;12.67;;;2.20;99.90;;;;;;4955566;28;20462;-67
2021/04/04 03:52:08;;;;;;;12.37;11.43;;;2.20;99.90;;;;;;4955750;29;20938;-67
2021/04/04 03:54:35;;;;;;;16.80;12.27;;;2.10;99.90;;;;;;4956040;29;20525;-67
2021/04/04 03:57:03;;;;;;;15.73;14.10;;;2.10;99.90;;;;;;4955578;29;21283;-67
2021/04/04 03:59:32;;;;;;;14.20;12.50;;;2.20;99.90;;;;;;4955753;29;20455;-67
2021/04/04 04:02:00;;;;;;;14.90;13.50;;;2.20;99.90;;;;;;4955836;29;20492;-67
2021/04/04 04:04:28;;;;;;;14.90;13.40;;;2.10;99.90;;;;;;4955330;29;20451;-67
2021/04/04 04:06:56;;;;;;;16.53;15.13;;;2.10;99.90;;;;;;4955378;28;20456;-66
2021/04/04 04:09:22;;;;;;;17.67;15.87;;;2.10;99.90;;;;;;4955238;29;20492;-66
2021/04/04 04:11:50;;;;;;;15.23;14.00;;;2.10;99.90;;;;;;4955275;29;20803;-67
2021/04/04 04:14:20;;;;;;;16.80;15.30;;;2.00;99.90;;;;;;4955415;29;20466;-66
2021/04/04 04:16:47;;;;;;;17.33;15.40;;;2.00;99.90;;;;;;4955336;28;20481;-68
2021/04/04 04:19:13;;;;;;;16.50;14.80;;;2.00;99.90;;;;;;4955256;29;20868;-67
2021/04/04 04:21:41;;;;;;;14.87;13.77;;;2.00;99.90;;;;;;4955127;29;20492;-66
2021/04/04 04:24:11;;;;;;;16.10;14.60;;;1.90;99.90;;;;;;4955368;29;20850;-66
2021/04/04 04:26:41;;;;;;;14.70;13.50;;;1.90;99.90;;;;;;4954696;29;20934;-66
2021/04/04 04:29:09;;;;;;;14.40;13.20;;;1.80;99.90;;;;;;4954972;28;20461;-67
2021/04/04 04:31:38;;;;;;;13.60;12.40;;;1.80;99.90;;;;;;4954964;29;20445;-67
2021/04/04 04:34:08;;;;;;;14.03;12.53;;;1.70;99.90;;;;;;4955168;29;20446;-67
2021/04/04 04:36:36;;;;;;;13.37;12.10;;;1.80;99.90;;;;;;4954806;29;20872;-67
2021/04/04 04:39:05;;;;;;;14.57;13.23;;;1.80;99.90;;;;;;4954472;28;20465;-67
2021/04/04 04:41:33;;;;;;;13.07;12.17;;;1.80;99.90;;;;;;4954586;29;21024;-67
2021/04/04 04:44:02;;;;;;;14.60;13.30;;;1.70;99.90;;;;;;4954753;29;20461;-67
2021/04/04 04:46:29;;;;;;;14.50;13.30;;;1.70;99.90;;;;;;4955028;29;20516;-66
2021/04/04 04:48:56;;;;;;;13.50;12.50;;;1.80;99.90;;;;;;4954661;29;20672;-66
2021/04/04 04:51:23;;;;;;;13.10;11.90;;;1.70;99.90;;;;;;4954348;28;20446;-66
2021/04/04 04:53:50;;;;;;;13.63;12.27;;;1.70;99.90;;;;;;4954696;29;20462;-66
2021/04/04 04:56:18;;;;;;;15.00;12.80;;;1.70;99.90;;;;;;4954675;29;20466;-66
2021/04/04 04:58:44;;;;;;;13.97;12.77;;;1.70;99.90;;;;;;4953847;28;20877;-67
2021/04/04 05:01:14;;;;;;;12.23;11.20;;;1.70;99.90;;;;;;4954207;29;20480;-67
2021/04/04 05:03:40;;;;;;;13.30;12.17;;;1.70;99.90;;;;;;4954480;29;20448;-67
2021/04/04 05:06:08;;;;;;;12.37;11.33;;;1.60;99.90;;;;;;4954717;29;20516;-71
2021/04/04 05:08:38;;;;;;;13.60;12.60;;;1.60;99.90;;;;;;4954397;29;20476;-68
2021/04/04 05:11:07;;;;;;;15.17;13.90;;;1.70;99.90;;;;;;4953980;29;21048;-68
2021/04/04 05:13:34;;;;;;;12.87;11.77;;;1.60;99.90;;;;;;4954081;29;20517;-68
2021/04/04 05:16:01;;;;;;;13.07;11.83;;;1.70;99.90;;;;;;4954335;28;20560;-67
2021/04/04 05:18:28;;;;;;;13.83;12.50;;;1.70;99.90;;;;;;4953989;29;20514;-66
2021/04/04 05:20:54;;;;;;;13.63;12.43;;;1.80;99.90;;;;;;4953989;29;20462;-67
2021/04/04 05:23:22;;;;;;;13.47;12.40;;;1.80;99.90;;;;;;4953985;29;20489;-67
2021/04/04 05:25:50;;;;;;;16.63;14.67;;;1.80;99.90;;;;;;4953883;29;20457;-66
2021/04/04 05:28:17;;;;;;;13.90;12.17;;;1.80;99.90;;;;;;4953876;29;20466;-67
2021/04/04 05:30:43;;;;;;;14.20;12.80;;;1.80;99.90;;;;;;4954168;29;20453;-67
2021/04/04 05:33:09;;;;;;;13.27;12.37;;;1.90;99.90;;;;;;4953446;29;20459;-67
2021/04/04 05:35:41;;;;;;;13.20;12.20;;;1.90;99.90;;;;;;4953662;28;20456;-67
2021/04/04 05:38:08;;;;;;;14.43;13.23;;;2.00;99.90;;;;;;4954078;29;20457;-67
2021/04/04 05:40:35;;;;;;;14.10;13.00;;;2.00;99.90;;;;;;4953500;29;20466;-67
2021/04/04 05:43:06;;;;;;;15.50;13.90;;;2.00;99.90;;;;;;4953412;29;20488;-67
2021/04/04 05:45:36;;;;;;;12.97;11.97;;;2.00;99.90;;;;;;4953673;29;20826;-67
2021/04/04 05:48:23;;;;;;;15.93;12.83;;;2.10;99.90;;;;;;4953619;29;20519;-67
2021/04/04 05:51:17;;;;;;;13.77;12.47;;;2.20;99.90;;;;;;4953370;29;20449;-66
2021/04/04 05:53:54;;;;;;;12.60;11.70;;;2.60;99.90;;;;;;4953367;29;20466;-67
2021/04/04 05:56:25;;;;;;;15.17;11.37;;;3.10;99.90;;;;;;4953424;29;20514;-67
2021/04/04 05:59:00;;;;;;;13.17;11.87;;;3.50;99.90;;;;;;4953261;29;20463;-67
2021/04/04 06:01:51;;;;;;;13.60;12.63;;;3.80;99.90;;;;;;4953741;29;20601;-67
2021/04/04 06:04:38;;;;;;;12.80;11.60;;;4.20;99.90;;;;;;4953205;29;20491;-68
2021/04/04 06:07:26;;;;;;;14.03;12.70;;;4.60;99.90;;;;;;4952863;29;20950;-67
2021/04/04 06:10:04;;;;;;;13.77;12.33;;;5.00;99.90;;;;;;4953014;28;20831;-67
2021/04/04 06:12:54;;;;;;;14.67;13.07;;;5.40;99.90;;;;;;4953115;29;20848;-68
2021/04/04 06:15:29;;;;;;;19.63;14.57;;;5.70;99.90;;;;;;4957438;28;20450;-67
2021/04/04 06:18:04;;;;;;;12.90;11.90;;;6.10;99.90;;;;;;4960782;28;20485;-67
2021/04/04 06:20:41;;;;;;;12.97;11.60;;;6.30;99.90;;;;;;4961450;28;20513;-68
2021/04/04 06:23:20;;;;;;;13.53;12.30;;;6.60;99.90;;;;;;4960674;28;20574;-67
2021/04/04 06:25:57;;;;;;;12.90;11.70;;;7.10;99.90;;;;;;4960847;28;20455;-67
2021/04/04 06:28:39;;;;;;;11.87;11.00;;;7.40;99.90;;;;;;4960494;28;20444;-68
2021/04/04 06:31:17;;;;;;;13.10;12.07;;;7.30;99.10;;;;;;4960810;28;20522;-68
2021/04/04 06:33:49;;;;;;;12.30;11.30;;;7.40;99.40;;;;;;4960673;28;20456;-68
2021/04/04 06:36:28;;;;;;;12.60;11.70;;;7.70;98.40;;;;;;4960666;28;20456;-68
2021/04/04 06:39:05;;;;;;;14.77;13.63;;;7.50;98.10;;;;;;4962036;28;21000;-68
2021/04/04 06:42:19;;;;;;;13.83;12.83;;;7.50;98.10;;;;;;4961172;28;20524;-68
2021/04/04 06:45:00;;;;;;;14.53;13.23;;;7.70;98.00;;;;;;4884589;29;20449;-67
2021/04/04 06:47:35;;;;;;;12.27;11.50;;;7.90;97.60;;;;;;4949632;28;20459;-68
2021/04/04 06:50:10;;;;;;;12.13;11.20;;;8.00;97.10;;;;;;4962176;28;20443;-69
2021/04/04 06:52:44;;;;;;;13.00;11.80;;;8.20;96.80;;;;;;4961729;28;20977;-68
2021/04/04 06:55:17;;;;;;;13.73;12.47;;;8.10;96.60;;;;;;4960995;28;20459;-68
2021/04/04 06:57:57;;;;;;;15.13;14.10;;;8.50;96.30;;;;;;4959380;28;20435;-68
2021/04/04 07:00:28;;;;;;;13.57;12.33;;;8.80;95.70;;;;;;4960966;28;20447;-68
2021/04/04 07:03:08;;;;;;;13.70;12.60;;;9.10;95.10;;;;;;4961516;28;20488;-68
2021/04/04 07:05:40;;;;;;;13.77;12.70;;;9.60;94.00;;;;;;4959882;28;20499;-69
2021/04/04 07:08:35;;;;;;;13.50;12.60;;;10.50;92.20;;;;;;4960309;28;20645;-69
2021/04/04 07:11:18;;;;;;;13.50;12.60;;;11.00;91.10;;;;;;4960678;28;20449;-67
2021/04/04 07:14:10;;;;;;;15.00;13.67;;;11.30;89.30;;;;;;4961107;28;20456;-68
2021/04/04 07:17:06;;;;;;;13.47;12.60;;;11.70;88.30;;;;;;4960201;28;20476;-68
2021/04/04 07:19:58;;;;;;;14.50;13.67;;;12.20;84.80;;;;;;4961593;28;20449;-68
2021/04/04 07:22:37;;;;;;;14.43;13.37;;;12.70;83.00;;;;;;4960069;28;20503;-70
2021/04/04 07:25:13;;;;;;;15.63;14.20;;;13.30;79.60;;;;;;4964897;28;20444;-69
2021/04/04 07:28:08;;;;;;;14.50;13.60;;;13.50;78.40;;;;;;4964400;28;20476;-69
2021/04/04 07:30:37;;;;;;;14.20;13.47;;;14.20;75.00;;;;;;4966005;28;20899;-68
2021/04/04 07:33:23;;;;;;;15.97;14.80;;;14.60;73.60;;;;;;4964673;28;20511;-69
2021/04/04 07:35:59;;;;;;;16.93;15.70;;;15.10;71.90;;;;;;4965274;28;20472;-68
2021/04/04 07:38:31;;;;;;;15.57;14.27;;;15.50;68.30;;;;;;4956188;28;20483;-71
2021/04/04 07:41:05;;;;;;;14.40;13.43;;;15.30;67.30;;;;;;4956131;29;20456;-71
2021/04/04 07:43:40;;;;;;;15.97;14.77;;;15.90;65.00;;;;;;4955992;29;20452;-71
2021/04/04 07:46:13;;;;;;;14.20;13.30;;;16.60;63.80;;;;;;4956049;29;20455;-70
2021/04/04 07:49:00;;;;;;;12.97;12.10;;;17.00;60.20;;;;;;4956004;29;20456;-68
2021/04/04 07:51:32;;;;;;;17.70;16.40;;;16.90;59.20;;;;;;4955978;29;20947;-69
2021/04/04 07:54:03;;;;;;;14.17;13.03;;;17.30;57.90;;;;;;4955647;29;20433;-69
2021/04/04 07:56:37;;;;;;;14.17;13.17;;;17.00;57.00;;;;;;4955984;29;20456;-69
2021/04/04 07:59:13;;;;;;;14.77;13.47;;;17.10;57.50;;;;;;4955538;29;20511;-69
2021/04/04 08:01:44;;;;;;;13.83;12.90;;;16.60;58.20;;;;;;4955722;29;20480;-69
2021/04/04 08:04:16;;;;;;;14.97;13.70;;;16.90;57.00;;;;;;4955814;29;20452;-69
2021/04/04 08:06:47;;;;;;;13.57;12.60;;;17.30;56.30;;;;;;4955853;29;20460;-69
2021/04/04 08:09:23;;;;;;;14.30;13.40;;;17.50;56.00;;;;;;4955353;29;20456;-69
2021/04/04 08:11:54;;;;;;;13.37;12.57;;;17.10;55.80;;;;;;4955579;29;20459;-69
2021/04/04 08:14:26;;;;;;;13.20;12.10;;;16.30;56.10;;;;;;4955693;29;20452;-69
2021/04/04 08:16:58;;;;;;;13.77;12.87;;;17.60;55.00;;;;;;4955492;28;20476;-69
2021/04/04 08:19:25;;;;;;;14.20;13.03;;;17.30;53.40;;;;;;4955343;29;20453;-69
2021/04/04 08:22:00;;;;;;;13.13;11.80;;;17.70;53.80;;;;;;4955238;28;20492;-70
2021/04/04 08:24:32;;;;;;;12.70;11.83;;;18.80;51.10;;;;;;4955324;29;20459;-70
2021/04/04 08:27:03;;;;;;;13.60;12.60;;;19.20;50.40;;;;;;4955512;29;20463;-69
2021/04/04 08:29:32;;;;;;;13.27;12.30;;;18.90;50.60;;;;;;4955366;29;20877;-69
2021/04/04 08:32:01;;;;;;;14.13;13.13;;;18.90;51.00;;;;;;4955286;28;20487;-69
2021/04/04 08:34:33;;;;;;;13.73;12.73;;;19.30;50.10;;;;;;4954229;28;20856;-69
2021/04/04 08:37:06;;;;;;;14.50;13.30;;;19.20;50.00;;;;;;4955035;29;20456;-68
2021/04/04 08:39:35;;;;;;;13.87;12.80;;;19.40;49.20;;;;;;4955322;29;20456;-69
2021/04/04 08:42:06;;;;;;;12.60;11.63;;;19.60;48.50;;;;;;4954742;29;20488;-69
2021/04/04 08:44:36;;;;;;;14.23;12.93;;;20.20;47.80;;;;;;4955072;29;20460;-69
2021/04/04 08:47:10;;;;;;;13.23;12.50;;;21.20;45.90;;;;;;4957846;28;21019;-69
2021/04/04 08:49:38;;;;;;;12.90;12.00;;;19.80;47.40;;;;;;4962218;28;20448;-69
2021/04/04 08:52:12;;;;;;;13.57;12.50;;;20.00;47.30;;;;;;4963146;28;20455;-68
2021/04/04 08:54:41;;;;;;;13.87;12.77;;;19.80;47.20;;;;;;4963989;28;20447;-69
2021/04/04 08:57:08;;;;;;;14.40;13.13;;;19.50;47.70;;;;;;4963365;28;20822;-68
2021/04/04 08:59:36;;;;;;;15.13;13.83;;;20.00;47.70;;;;;;4962081;28;20646;-68
2021/04/04 09:02:06;;;;;;;13.00;11.80;;;20.90;46.70;;;;;;4963354;28;20830;-69
2021/04/04 09:04:35;;;;;;;13.70;12.60;;;21.50;45.60;;;;;;4963472;28;20939;-68
2021/04/04 09:07:03;;;;;;;14.10;13.00;;;21.90;44.50;;;;;;4962204;28;20853;-69
2021/04/04 09:09:34;;;;;;;12.60;11.80;;;21.90;44.00;;;;;;4962642;28;20837;-68
2021/04/04 09:12:01;;;;;;;13.83;12.87;;;21.60;44.00;;;;;;4962013;28;20970;-68
2021/04/04 09:14:35;;;;;;;13.57;12.67;;;22.10;43.00;;;;;;4962587;28;20849;-67
2021/04/04 09:17:06;;;;;;;13.77;12.70;;;22.50;42.40;;;;;;4962002;28;20480;-68
2021/04/04 09:19:34;;;;;;;13.37;12.47;;;22.30;42.40;;;;;;4964526;28;20452;-72
2021/04/04 09:22:04;;;;;;;15.27;14.20;;;22.90;41.70;;;;;;4961849;28;20485;-69
2021/04/04 09:24:40;;;;;;;15.63;14.73;;;23.10;41.00;;;;;;4970693;28;20452;-72
2021/04/04 09:27:12;;;;;;;14.60;13.90;;;23.10;41.40;;;;;;4973524;28;20455;-70
2021/04/04 09:29:40;;;;;;;14.43;13.53;;;22.40;41.00;;;;;;4973363;28;20965;-71
2021/04/04 09:32:12;;;;;;;15.13;14.13;;;22.40;42.30;;;;;;4973276;28;20490;-70
2021/04/04 09:34:42;;;;;;;14.50;13.50;;;22.70;41.70;;;;;;4973401;28;20452;-72
2021/04/04 09:37:10;;;;;;;14.10;13.20;;;23.00;40.30;;;;;;4973254;28;20452;-72
2021/04/04 09:39:39;;;;;;;14.53;13.43;;;23.00;40.80;;;;;;4973170;28;20506;-72
2021/04/04 09:42:06;;;;;;;14.10;13.30;;;22.30;40.50;;;;;;4972993;28;20577;-71
2021/04/04 09:44:34;;;;;;;13.00;12.20;;;22.60;40.40;;;;;;4972632;28;21007;-71
2021/04/04 09:47:04;;;;;;;15.63;13.80;;;23.40;40.10;;;;;;4972948;28;20448;-71
2021/04/04 09:49:40;;;;;;;12.87;12.17;;;24.50;37.90;;;;;;4973083;28;21169;-70
2021/04/04 09:52:23;;;;;;;12.50;11.90;;;23.60;37.70;;;;;;4973369;28;20451;-71
2021/04/04 09:55:05;;;;;;;13.10;12.40;;;23.30;35.90;;;;;;4972846;28;20459;-72
2021/04/04 09:57:39;;;;;;;12.50;11.80;;;22.70;34.90;;;;;;4972700;28;20451;-72
2021/04/04 10:00:19;;;;;;;10.60;10.10;;;22.90;35.60;;;;;;4972963;28;20852;-71
2021/04/04 10:02:46;;;;;;;12.47;11.83;;;22.50;32.90;;;;;;4967972;28;20573;-71
2021/04/04 10:05:23;;;;;;;12.30;11.60;;;23.10;34.10;;;;;;4974910;28;20494;-71
2021/04/04 10:07:49;;;;;;;12.03;11.43;;;23.60;33.90;;;;;;4973014;28;20451;-71
2021/04/04 10:10:27;;;;;;;12.43;11.73;;;22.70;33.70;;;;;;4972395;28;20973;-71
2021/04/04 10:12:57;;;;;;;11.90;11.10;;;22.20;34.20;;;;;;4972915;28;20498;-72
2021/04/04 10:15:24;;;;;;;12.07;11.37;;;21.80;34.90;;;;;;4972938;28;20534;-72
2021/04/04 10:17:55;;;;;;;14.07;13.03;;;21.50;35.90;;;;;;4972098;28;20478;-72
2021/04/04 10:20:30;;;;;;;13.00;12.20;;;21.90;36.30;;;;;;4972457;28;20525;-71
2021/04/04 10:22:56;;;;;;;11.90;11.30;;;22.30;36.30;;;;;;4972841;28;20502;-70
2021/04/04 10:25:24;;;;;;;10.07;9.67;;;23.00;33.90;;;;;;4972763;28;20458;-71
2021/04/04 10:27:58;;;;;;;11.90;11.30;;;22.50;32.10;;;;;;4972926;28;20873;-73
2021/04/04 10:30:28;;;;;;;10.90;10.40;;;22.80;33.20;;;;;;4972914;28;20494;-73
2021/04/04 10:32:54;;;;;;;11.47;10.80;;;23.20;32.00;;;;;;4972624;28;20455;-73
2021/04/04 10:35:32;;;;;;;11.00;10.50;;;23.20;31.50;;;;;;4972628;28;20452;-72
2021/04/04 10:38:04;;;;;;;10.03;9.53;;;22.80;30.90;;;;;;4972796;28;20470;-72
2021/04/04 10:40:41;;;;;;;11.13;10.60;;;22.80;31.00;;;;;;4972846;28;20466;-73
2021/04/04 10:43:08;;;;;;;11.70;11.00;;;22.50;30.60;;;;;;4972537;28;20486;-72
2021/04/04 10:45:34;;;;;;;11.83;11.03;;;23.30;31.20;;;;;;4972242;28;20448;-71
2021/04/04 10:48:06;;;;;;;11.40;10.80;;;23.20;30.20;;;;;;4972348;28;20451;-70
2021/04/04 10:50:33;;;;;;;12.20;11.60;;;22.80;30.70;;;;;;4972709;28;20456;-72
2021/04/04 10:53:00;;;;;;;12.00;11.30;;;23.00;31.20;;;;;;4972769;28;20443;-72
2021/04/04 10:55:27;;;;;;;11.53;10.93;;;22.90;30.90;;;;;;4971213;28;20475;-70
2021/04/04 10:57:55;;;;;;;11.70;11.00;;;23.50;31.30;;;;;;4971715;28;20444;-70
2021/04/04 11:00:22;;;;;;;11.53;10.80;;;23.70;30.70;;;;;;4972390;28;20517;-70
2021/04/04 11:02:49;;;;;;;11.50;10.90;;;23.30;31.00;;;;;;4972030;28;20491;-70
2021/04/04 11:05:17;;;;;;;12.53;11.63;;;23.70;31.40;;;;;;4970125;28;20459;-73
2021/04/04 11:07:43;;;;;;;11.50;10.97;;;24.00;31.60;;;;;;4972188;28;20454;-71
2021/04/04 11:10:11;;;;;;;11.43;10.70;;;24.20;30.40;;;;;;4971130;28;20981;-70
2021/04/04 11:12:39;;;;;;;14.00;13.30;;;24.10;30.00;;;;;;4971369;28;20448;-69
2021/04/04 11:15:12;;;;;;;12.00;11.40;;;23.50;30.90;;;;;;4971812;28;20458;-73
2021/04/04 11:17:40;;;;;;;11.70;11.10;;;21.90;31.90;;;;;;4971886;28;20861;-72
2021/04/04 11:20:09;;;;;;;12.60;11.90;;;21.30;32.90;;;;;;4971830;28;21163;-72
2021/04/04 11:22:36;;;;;;;11.70;10.90;;;21.00;33.30;;;;;;4972006;28;20499;-73
2021/04/04 11:25:09;;;;;;;12.30;11.70;;;21.40;33.80;;;;;;4971739;28;20527;-71
2021/04/04 11:27:40;;;;;;;12.37;11.87;;;21.10;33.20;;;;;;4971956;28;20539;-70
2021/04/04 11:30:13;;;;;;;10.80;10.20;;;20.60;33.70;;;;;;4971473;28;20463;-71
2021/04/04 11:32:41;;;;;;;11.60;11.03;;;21.40;33.30;;;;;;4971784;28;20459;-71
2021/04/04 11:35:08;;;;;;;12.37;11.57;;;22.30;32.70;;;;;;4971719;28;20503;-70
2021/04/04 11:37:37;;;;;;;12.00;11.37;;;23.00;32.00;;;;;;4971788;28;20542;-71
2021/04/04 11:40:17;;;;;;;11.50;10.90;;;22.60;31.50;;;;;;4971824;28;20451;-71
2021/04/04 11:42:45;;;;;;;11.70;10.90;;;23.00;31.90;;;;;;4972137;28;20494;-71
2021/04/04 11:45:13;;;;;;;11.47;10.87;;;22.30;32.40;;;;;;4971944;28;20463;-70
2021/04/04 11:47:40;;;;;;;11.93;11.10;;;21.70;32.80;;;;;;4971637;28;20869;-71
2021/04/04 11:50:24;;;;;;;12.50;11.60;;;21.90;32.90;;;;;;4971085;28;20455;-71
2021/04/04 11:52:51;;;;;;;10.57;9.97;;;23.00;32.50;;;;;;4962112;28;20563;-70
2021/04/04 11:55:19;;;;;;;12.57;11.63;;;22.40;31.90;;;;;;4960029;28;20444;-70
2021/04/04 11:57:46;;;;;;;12.97;12.23;;;21.30;32.80;;;;;;4961760;28;20448;-70
2021/04/04 12:00:23;;;;;;;12.97;12.20;;;21.20;33.00;;;;;;4960592;28;20464;-71
2021/04/04 12:03:04;;;;;;;11.63;10.93;;;20.40;33.60;;;;;;4960003;28;20492;-70
2021/04/04 12:05:36;;;;;;;11.43;10.83;;;20.70;34.30;;;;;;4960262;28;20818;-70
2021/04/04 12:08:03;;;;;;;11.97;11.07;;;21.70;33.40;;;;;;4959792;28;20520;-70
2021/04/04 12:10:31;;;;;;;11.30;10.73;;;22.30;32.90;;;;;;4964306;28;20455;-71
2021/04/04 12:12:58;;;;;;;11.40;10.90;;;23.60;32.10;;;;;;4964560;28;20449;-70
2021/04/04 12:15:26;;;;;;;11.90;11.20;;;23.50;31.30;;;;;;4962754;28;20475;-71
2021/04/04 12:17:54;;;;;;;11.33;10.90;;;23.40;30.90;;;;;;4963851;28;20471;-71
2021/04/04 12:20:23;;;;;;;12.23;11.30;;;23.50;30.40;;;;;;4964623;28;20463;-71
2021/04/04 12:22:49;;;;;;;12.97;12.23;;;23.60;30.70;;;;;;4962724;28;20875;-71
2021/04/04 12:25:18;;;;;;;12.57;11.83;;;23.50;30.40;;;;;;4963269;28;20443;-71
2021/04/04 12:27:47;;;;;;;12.47;11.77;;;24.10;30.00;;;;;;4964473;28;20852;-71
2021/04/04 12:30:26;;;;;;;12.77;12.07;;;24.30;30.00;;;;;;4963894;28;20452;-71
2021/04/04 12:33:03;;;;;;;12.70;11.90;;;24.80;29.50;;;;;;4963284;28;20455;-71
2021/04/04 12:35:30;;;;;;;12.30;11.70;;;25.50;29.20;;;;;;4955136;29;20515;-71
2021/04/04 12:37:56;;;;;;;12.07;11.37;;;24.00;29.10;;;;;;4954941;29;20459;-72
2021/04/04 12:40:23;;;;;;;11.63;10.93;;;22.40;30.80;;;;;;4954933;29;20479;-72
2021/04/04 12:42:55;;;;;;;12.80;12.13;;;22.20;30.90;;;;;;4954767;28;20492;-71
2021/04/04 12:45:21;;;;;;;12.90;12.07;;;22.30;30.90;;;;;;4954984;29;20488;-72
2021/04/04 12:47:48;;;;;;;12.23;11.63;;;21.60;31.30;;;;;;4954774;29;20457;-70
2021/04/04 12:50:17;;;;;;;12.17;11.50;;;22.00;31.10;;;;;;4954907;29;20463;-72
2021/04/04 12:52:44;;;;;;;12.70;11.90;;;21.50;31.50;;;;;;4952351;28;20504;-72